createdAt,value
2022-12-15T00:02:02.805Z,2.70
2022-12-15T00:05:25.465Z,2.60
2022-12-15T00:08:46.331Z,2.60
2022-12-15T00:12:07.085Z,2.60
2022-12-15T00:15:28.499Z,2.60
2022-12-15T00:18:49.430Z,2.60
2022-12-15T00:22:11.671Z,2.60
2022-12-15T00:25:32.532Z,2.70
2022-12-15T00:28:53.397Z,2.60
2022-12-15T00:32:14.066Z,2.60
2022-12-15T00:35:35.121Z,2.70
2022-12-15T00:38:45.523Z,2.70
2022-12-15T00:41:48.676Z,2.70
2022-12-15T00:44:52.037Z,2.70
2022-12-15T00:47:53.985Z,2.10
2022-12-15T00:50:56.993Z,2.60
2022-12-15T00:54:18.964Z,4.00
2022-12-15T00:57:39.979Z,2.80
2022-12-15T01:01:00.572Z,2.80
2022-12-15T01:04:21.390Z,2.80
2022-12-15T01:07:42.093Z,2.80
2022-12-15T01:11:04.215Z,2.80
2022-12-15T01:14:24.903Z,2.80
2022-12-15T01:17:45.677Z,2.80
2022-12-15T01:20:57.036Z,2.90
2022-12-15T01:24:00.103Z,2.90
2022-12-15T01:27:04.615Z,2.90
2022-12-15T01:30:10.880Z,3.00
2022-12-15T01:33:14.290Z,3.00
2022-12-15T01:36:17.225Z,3.00
2022-12-15T01:39:20.276Z,3.10
2022-12-15T01:42:23.678Z,3.10
2022-12-15T01:45:51.070Z,3.10
2022-12-15T01:49:02.399Z,3.20
2022-12-15T01:52:09.529Z,3.20
2022-12-15T01:55:12.620Z,3.70
2022-12-15T01:58:20.090Z,3.30
2022-12-15T02:01:23.413Z,3.20
2022-12-15T02:04:27.193Z,3.20
2022-12-15T02:07:30.439Z,3.20
2022-12-15T02:10:52.625Z,3.30
2022-12-15T02:14:02.872Z,4.60
2022-12-15T02:17:20.098Z,4.00
2022-12-15T02:20:48.145Z,3.30
2022-12-15T02:24:41.331Z,3.20
2022-12-15T02:27:54.976Z,3.30
2022-12-15T02:31:23.773Z,3.20
2022-12-15T02:34:35.724Z,3.10
2022-12-15T02:37:41.129Z,3.10
2022-12-15T02:40:44.158Z,3.10
2022-12-15T02:43:47.243Z,3.20
2022-12-15T02:47:19.786Z,3.10
2022-12-15T02:50:48.382Z,3.10
2022-12-15T02:54:18.057Z,3.20
2022-12-15T02:57:32.825Z,3.20
2022-12-15T03:00:43.936Z,3.20
2022-12-15T03:03:51.615Z,3.10
2022-12-15T03:07:01.059Z,3.20
2022-12-15T03:10:08.203Z,3.10
2022-12-15T03:13:11.150Z,3.10
2022-12-15T03:16:14.138Z,3.50
2022-12-15T03:19:18.747Z,3.10
2022-12-15T03:22:22.094Z,2.70
2022-12-15T03:25:25.281Z,3.20
2022-12-15T03:28:28.668Z,3.10
2022-12-15T03:31:31.731Z,3.80
2022-12-15T03:34:36.194Z,3.20
2022-12-15T03:37:39.227Z,3.20
2022-12-15T03:40:42.172Z,3.20
2022-12-15T03:43:46.446Z,3.10
2022-12-15T03:46:53.007Z,3.20
2022-12-15T03:49:57.806Z,3.20
2022-12-15T03:53:03.114Z,3.40
2022-12-15T03:56:07.101Z,3.20
2022-12-15T03:59:10.126Z,3.20
2022-12-15T04:02:13.536Z,3.20
2022-12-15T04:05:23.132Z,3.30
2022-12-15T04:08:26.609Z,3.30
2022-12-15T04:11:29.766Z,3.30
2022-12-15T04:14:33.130Z,3.30
2022-12-15T04:17:36.318Z,3.30
2022-12-15T04:20:41.767Z,3.80
2022-12-15T04:24:02.609Z,3.20
2022-12-15T04:27:23.357Z,3.40
2022-12-15T04:30:43.995Z,3.40
2022-12-15T04:34:10.116Z,3.40
2022-12-15T04:37:33.050Z,3.40
2022-12-15T04:40:54.350Z,3.50
2022-12-15T04:44:15.329Z,3.50
2022-12-15T04:47:36.657Z,4.00
2022-12-15T04:50:58.261Z,3.50
2022-12-15T04:54:20.514Z,3.50
2022-12-15T04:57:41.347Z,4.10
2022-12-15T05:01:02.234Z,3.60
2022-12-15T05:04:23.474Z,3.60
2022-12-15T05:07:44.719Z,3.60
2022-12-15T05:11:06.534Z,3.60
2022-12-15T05:14:27.331Z,3.60
2022-12-15T05:17:48.257Z,3.60
2022-12-15T05:21:09.176Z,3.60
2022-12-15T05:24:29.775Z,3.70
2022-12-15T05:27:52.264Z,3.70
2022-12-15T05:31:12.881Z,3.80
2022-12-15T05:34:16.249Z,3.30
2022-12-15T05:37:19.232Z,3.90
2022-12-15T05:40:22.324Z,3.90
2022-12-15T05:43:27.054Z,4.90
2022-12-15T05:46:30.110Z,4.00
2022-12-15T05:49:34.086Z,4.00
2022-12-15T05:52:37.229Z,3.90
2022-12-15T05:55:40.227Z,4.10
2022-12-15T05:58:45.775Z,4.10
2022-12-15T06:01:49.064Z,4.10
2022-12-15T06:04:52.226Z,4.10
2022-12-15T06:07:56.162Z,4.20
2022-12-15T06:10:59.446Z,4.20
2022-12-15T06:14:03.944Z,4.20
2022-12-15T06:17:07.082Z,4.20
2022-12-15T06:20:11.434Z,5.40
2022-12-15T06:23:14.385Z,4.30
2022-12-15T06:26:21.462Z,4.40
2022-12-15T06:29:25.982Z,4.30
2022-12-15T06:32:29.071Z,4.40
2022-12-15T06:35:32.834Z,4.70
2022-12-15T06:38:36.823Z,4.40
2022-12-15T06:41:41.260Z,4.40
2022-12-15T06:44:45.649Z,4.30
2022-12-15T06:47:49.895Z,4.30
2022-12-15T06:50:53.570Z,4.30
2022-12-15T06:53:56.906Z,4.20
2022-12-15T06:56:59.947Z,4.20
2022-12-15T07:00:06.456Z,4.10
2022-12-15T07:03:16.301Z,4.80
2022-12-15T07:06:20.190Z,4.00
2022-12-15T07:09:26.046Z,3.90
2022-12-15T07:16:00.657Z,5.50
2022-12-15T07:19:04.032Z,3.70
2022-12-15T07:22:07.231Z,3.60
2022-12-15T07:25:11.022Z,3.40
2022-12-15T07:28:14.064Z,3.40
2022-12-15T07:31:21.229Z,3.30
2022-12-15T07:34:26.724Z,3.20
2022-12-15T07:37:35.685Z,3.10
2022-12-15T07:40:41.791Z,3.20
2022-12-15T07:43:45.939Z,4.10
2022-12-15T07:46:51.287Z,2.90
2022-12-15T07:49:54.591Z,2.80
2022-12-15T07:52:57.838Z,2.80
2022-12-15T07:56:08.101Z,2.80
2022-12-15T07:59:12.314Z,2.70
2022-12-15T08:02:17.757Z,3.40
2022-12-15T08:05:21.275Z,2.00
2022-12-15T08:08:25.208Z,2.60
2022-12-15T08:11:28.665Z,1.80
2022-12-15T08:14:32.290Z,2.50
2022-12-15T08:17:37.549Z,2.50
2022-12-15T08:20:41.095Z,2.40
2022-12-15T08:23:45.886Z,3.50
2022-12-15T08:26:50.766Z,2.40
2022-12-15T08:29:54.751Z,2.30
2022-12-15T08:32:59.471Z,2.30
2022-12-15T08:36:07.548Z,2.30
2022-12-15T08:39:12.177Z,2.30
2022-12-15T08:42:15.511Z,2.30
2022-12-15T08:45:19.089Z,2.30
2022-12-15T08:48:24.342Z,2.30
2022-12-15T08:51:31.878Z,2.30
2022-12-15T08:54:35.758Z,2.60
2022-12-15T08:57:40.522Z,2.30
2022-12-15T09:00:44.162Z,3.30
2022-12-15T09:03:51.593Z,2.80
2022-12-15T09:06:55.297Z,2.30
2022-12-15T09:09:59.891Z,2.30
2022-12-15T09:13:03.507Z,2.20
2022-12-15T09:16:17.149Z,2.40
2022-12-15T09:19:25.492Z,2.40
2022-12-15T09:22:29.024Z,2.50
2022-12-15T09:25:32.569Z,2.50
2022-12-15T09:28:37.285Z,2.50
2022-12-15T09:31:44.633Z,2.50
2022-12-15T09:34:52.528Z,2.60
2022-12-15T09:37:57.901Z,2.60
2022-12-15T09:41:10.629Z,2.70
2022-12-15T09:44:18.966Z,2.70
2022-12-15T09:47:35.192Z,3.80
2022-12-15T09:50:43.972Z,2.80
2022-12-15T09:57:20.705Z,2.90
2022-12-15T10:00:29.404Z,3.00
2022-12-15T10:03:55.029Z,3.00
2022-12-15T10:07:09.516Z,3.00
2022-12-15T10:10:25.599Z,3.10
2022-12-15T10:13:41.855Z,3.10
2022-12-15T10:16:56.448Z,4.10
2022-12-15T10:20:14.411Z,4.20
2022-12-15T10:23:32.460Z,3.20
2022-12-15T10:26:37.797Z,4.40
2022-12-15T10:29:50.771Z,4.50
2022-12-15T10:33:03.787Z,3.30
2022-12-15T10:36:12.759Z,3.40
2022-12-15T10:39:17.794Z,3.40
2022-12-15T10:42:24.437Z,3.40
2022-12-15T10:45:36.638Z,3.40
2022-12-15T10:48:40.146Z,3.40
2022-12-15T10:51:47.348Z,3.40
2022-12-15T10:54:54.750Z,3.40
2022-12-15T10:58:02.222Z,3.50
2022-12-15T11:01:15.631Z,3.50
2022-12-15T11:04:28.309Z,3.50
2022-12-15T11:07:39.971Z,3.50
2022-12-15T11:11:12.901Z,3.50
2022-12-15T11:14:20.931Z,4.70
2022-12-15T11:17:25.199Z,3.60
2022-12-15T11:20:34.540Z,3.60
2022-12-15T11:23:57.634Z,3.60
2022-12-15T11:27:14.006Z,3.60
2022-12-15T11:30:22.169Z,3.60
2022-12-15T11:33:25.244Z,2.70
2022-12-15T11:37:00.775Z,4.50
2022-12-15T11:40:20.789Z,3.70
2022-12-15T11:44:13.490Z,4.90
2022-12-15T11:47:27.805Z,3.70
2022-12-15T11:50:33.499Z,3.70
2022-12-15T11:54:14.917Z,3.80
2022-12-15T11:57:52.921Z,3.80
2022-12-15T12:01:09.716Z,3.60
2022-12-15T12:04:23.268Z,4.50
2022-12-15T12:07:42.131Z,3.80
2022-12-15T12:11:00.384Z,3.80
2022-12-15T12:14:25.812Z,3.80
2022-12-15T12:17:43.325Z,3.90
2022-12-15T12:20:52.885Z,4.30
2022-12-15T12:24:02.277Z,3.90
2022-12-15T12:27:13.771Z,3.90
2022-12-15T12:30:21.909Z,3.90
2022-12-15T12:33:37.661Z,3.90
2022-12-15T12:36:43.021Z,4.60
2022-12-15T12:39:46.951Z,3.90
2022-12-15T12:42:55.603Z,3.90
2022-12-15T12:46:04.891Z,3.80
2022-12-15T12:49:26.239Z,3.80
2022-12-15T12:52:34.194Z,4.50
2022-12-15T12:55:42.018Z,4.00
2022-12-15T12:58:45.345Z,3.80
2022-12-15T13:01:51.876Z,3.70
2022-12-15T13:05:27.159Z,3.70
2022-12-15T13:08:51.905Z,3.80
2022-12-15T13:12:14.857Z,3.80
2022-12-15T13:15:39.109Z,3.90
2022-12-15T13:19:03.384Z,3.80
2022-12-15T13:22:33.898Z,3.80
2022-12-15T13:25:48.532Z,4.60
2022-12-15T13:28:58.416Z,3.70
2022-12-15T13:32:01.942Z,4.10
2022-12-15T13:35:24.411Z,3.70
2022-12-15T13:38:54.078Z,3.50
2022-12-15T13:42:38.881Z,3.50
2022-12-15T13:46:01.876Z,3.50
2022-12-15T13:49:14.735Z,4.30
2022-12-15T13:53:08.472Z,4.40
2022-12-15T13:56:07.659Z,3.40
2022-12-15T13:59:26.822Z,3.40
2022-12-15T14:02:31.730Z,3.30
2022-12-15T14:05:35.029Z,3.30
2022-12-15T14:08:38.811Z,3.20
2022-12-15T14:11:53.351Z,3.20
2022-12-15T14:14:57.308Z,3.10
2022-12-15T14:18:03.030Z,3.10
2022-12-15T14:21:19.029Z,3.00
2022-12-15T14:24:39.674Z,3.00
2022-12-15T14:27:44.769Z,2.90
2022-12-15T14:30:54.049Z,2.90
2022-12-15T14:34:04.508Z,2.80
2022-12-15T14:37:14.116Z,2.80
2022-12-15T14:40:24.991Z,2.70
2022-12-15T14:43:37.586Z,2.60
2022-12-15T14:46:41.640Z,2.60
2022-12-15T14:49:46.240Z,2.50
2022-12-15T14:52:56.530Z,2.40
2022-12-15T14:56:13.761Z,3.30
2022-12-15T14:59:22.615Z,2.30
2022-12-15T15:02:29.608Z,2.30
2022-12-15T15:05:34.446Z,2.20
2022-12-15T15:08:46.706Z,1.60
2022-12-15T15:11:53.406Z,2.10
2022-12-15T15:15:05.873Z,2.10
2022-12-15T15:18:26.121Z,2.00
2022-12-15T15:21:37.203Z,1.90
2022-12-15T15:24:40.516Z,3.00
2022-12-15T15:27:44.537Z,1.80
2022-12-15T15:30:50.669Z,2.50
2022-12-15T15:33:56.839Z,1.60
2022-12-15T15:37:02.977Z,1.50
2022-12-15T15:40:15.587Z,2.00
2022-12-15T15:43:19.467Z,1.30
2022-12-15T15:46:29.531Z,1.20
2022-12-15T15:49:39.352Z,1.30
2022-12-15T15:52:45.628Z,1.00
2022-12-15T15:55:54.810Z,1.00
2022-12-15T15:59:00.102Z,0.90
2022-12-15T16:02:05.355Z,0.80
2022-12-15T16:05:11.746Z,0.70
2022-12-15T16:08:20.334Z,1.30
2022-12-15T16:11:32.289Z,0.60
2022-12-15T16:14:35.327Z,0.60
2022-12-15T16:17:39.914Z,0.60
2022-12-15T16:20:47.298Z,1.60
2022-12-15T16:23:50.702Z,0.50
2022-12-15T16:26:53.832Z,0.20
2022-12-15T16:29:58.007Z,0.40
2022-12-15T16:33:02.336Z,0.30
2022-12-15T16:36:12.928Z,0.30
2022-12-15T16:39:31.443Z,1.00
2022-12-15T16:42:34.602Z,0.10
2022-12-15T16:45:37.558Z,0.10
2022-12-15T16:48:42.570Z,0.00
2022-12-15T16:51:48.911Z,-0.80
2022-12-15T16:54:52.175Z,0.90
2022-12-15T16:57:59.621Z,0.80
2022-12-15T17:01:03.833Z,-0.20
2022-12-15T17:04:08.334Z,-0.20
2022-12-15T17:07:20.126Z,-0.20
2022-12-15T17:10:26.667Z,-0.30
2022-12-15T17:13:40.638Z,-0.90
2022-12-15T17:16:46.978Z,-0.40
2022-12-15T17:20:27.490Z,-0.50
2022-12-15T17:23:19.072Z,-0.60
2022-12-15T17:26:29.653Z,-0.70
2022-12-15T17:29:34.690Z,-0.70
2022-12-15T17:32:37.681Z,-0.80
2022-12-15T17:35:42.221Z,-0.80
2022-12-15T17:38:46.085Z,-0.60
2022-12-15T17:41:59.926Z,-0.80
2022-12-15T17:45:03.745Z,-0.90
2022-12-15T17:48:07.405Z,-0.90
2022-12-15T17:51:16.452Z,-0.90
2022-12-15T17:54:21.150Z,-0.90
2022-12-15T17:57:25.406Z,-2.20
2022-12-15T18:00:30.743Z,-0.90
2022-12-15T18:03:34.291Z,-0.80
2022-12-15T18:06:41.112Z,-0.10
2022-12-15T18:09:44.286Z,-0.60
2022-12-15T18:12:47.410Z,-1.00
2022-12-15T18:15:51.655Z,-1.00
2022-12-15T18:18:54.667Z,-1.00
2022-12-15T18:21:59.466Z,-1.10
2022-12-15T18:25:02.540Z,-1.10
2022-12-15T18:28:20.830Z,0.30
2022-12-15T18:31:27.525Z,0.10
2022-12-15T18:34:30.685Z,-1.30
2022-12-15T18:37:35.892Z,-1.30
2022-12-15T18:40:39.360Z,-1.30
2022-12-15T18:43:48.115Z,-1.40
2022-12-15T18:46:51.425Z,-1.40
2022-12-15T18:49:55.578Z,-1.40
2022-12-15T18:53:04.176Z,-1.50
2022-12-15T18:56:08.973Z,-0.80
2022-12-15T18:59:15.713Z,-1.50
2022-12-15T19:02:18.967Z,-0.60
2022-12-15T19:05:32.854Z,-1.60
2022-12-15T19:08:38.749Z,-1.60
2022-12-15T19:12:02.369Z,-1.80
2022-12-15T19:15:16.988Z,-0.40
2022-12-15T19:18:41.621Z,-1.10
2022-12-15T19:22:02.535Z,-1.80
2022-12-15T19:25:08.307Z,-1.80
2022-12-15T19:28:17.321Z,-1.90
2022-12-15T19:31:20.379Z,-1.00
2022-12-15T19:34:23.622Z,-1.90
2022-12-15T19:37:31.913Z,-1.80
2022-12-15T19:40:38.477Z,-2.00
2022-12-15T19:43:41.451Z,-2.10
2022-12-15T19:46:45.706Z,-2.10
2022-12-15T19:49:49.613Z,-1.00
2022-12-15T19:52:59.663Z,-2.20
2022-12-15T19:56:05.255Z,-2.30
2022-12-15T19:59:18.682Z,-1.00
2022-12-15T20:02:22.786Z,-2.40
2022-12-15T20:05:26.657Z,-2.50
2022-12-15T20:08:36.500Z,-2.60
2022-12-15T20:11:41.401Z,-2.60
2022-12-15T20:14:44.399Z,-2.70
2022-12-15T20:17:48.492Z,-2.50
2022-12-15T20:20:52.255Z,-2.70
2022-12-15T20:23:58.074Z,-2.70
2022-12-15T20:27:05.020Z,-2.70
2022-12-15T20:30:20.027Z,-2.70
2022-12-15T20:33:23.479Z,-2.70
2022-12-15T20:36:30.291Z,-2.70
2022-12-15T20:39:33.653Z,-2.90
2022-12-15T20:42:38.509Z,-2.70
2022-12-15T20:45:41.687Z,-2.70
2022-12-15T20:48:46.491Z,-2.70
2022-12-15T20:51:50.815Z,-3.30
2022-12-15T20:54:55.677Z,-2.60
2022-12-15T20:58:00.476Z,-2.50
2022-12-15T21:01:03.520Z,-2.60
2022-12-15T21:04:25.194Z,-2.50
2022-12-15T21:07:28.284Z,-2.50
2022-12-15T21:10:31.497Z,-1.70
2022-12-15T21:13:37.187Z,-2.40
2022-12-15T21:16:40.317Z,-2.30
2022-12-15T21:19:43.520Z,-1.60
2022-12-15T21:22:46.984Z,-1.60
2022-12-15T21:25:50.795Z,-2.30
2022-12-15T21:28:59.461Z,-2.20
2022-12-15T21:32:02.514Z,-2.30
2022-12-15T21:35:07.378Z,-2.20
2022-12-15T21:38:29.768Z,-1.20
2022-12-15T21:41:33.508Z,-2.10
2022-12-15T21:44:37.806Z,-2.10
2022-12-15T21:47:54.975Z,-2.10
2022-12-15T21:50:58.148Z,-2.10
2022-12-15T21:54:02.814Z,-2.00
2022-12-15T21:57:12.116Z,-2.10
2022-12-15T22:00:19.367Z,-2.10
2022-12-15T22:03:22.749Z,-2.20
2022-12-15T22:06:27.682Z,-2.20
2022-12-15T22:09:30.764Z,-1.20
2022-12-15T22:12:34.102Z,-2.30
2022-12-15T22:15:39.761Z,-2.30
2022-12-15T22:18:43.250Z,-2.40
2022-12-15T22:21:46.267Z,-2.50
2022-12-15T22:24:49.342Z,-2.60
2022-12-15T22:27:54.696Z,-2.70
2022-12-15T22:31:02.475Z,-1.90
2022-12-15T22:34:14.612Z,-2.80
2022-12-15T22:37:17.696Z,-2.80
2022-12-15T22:40:23.052Z,-2.90
2022-12-15T22:43:35.866Z,-2.80
2022-12-15T22:46:40.359Z,-1.90
2022-12-15T22:49:43.914Z,-2.80
2022-12-15T22:52:47.193Z,-2.30
2022-12-15T22:55:51.178Z,-2.80
2022-12-15T22:59:01.769Z,-2.80
2022-12-15T23:02:06.537Z,-2.60
2022-12-15T23:05:12.925Z,-2.60
2022-12-15T23:08:16.536Z,-2.60
2022-12-15T23:11:38.852Z,-2.50
2022-12-15T23:14:59.747Z,-2.50
2022-12-15T23:18:04.403Z,-2.50
2022-12-15T23:21:09.422Z,-2.50
2022-12-15T23:24:12.476Z,-2.50
2022-12-15T23:27:15.477Z,-2.50
2022-12-15T23:30:19.043Z,-2.50
2022-12-15T23:33:24.838Z,-2.60
2022-12-15T23:36:28.510Z,-2.60
2022-12-15T23:39:31.516Z,-2.70
2022-12-15T23:42:35.471Z,-3.10
2022-12-15T23:45:38.576Z,-2.30
2022-12-15T23:48:45.379Z,-2.70
2022-12-15T23:51:48.943Z,-2.80
2022-12-15T23:54:51.969Z,-2.00
2022-12-15T23:57:56.644Z,-2.90
